SBMKSBCF

Guest
Details From SBMK - MARIO RIBEIRO
To SBCF - Tancredo Neves
Flight Number -
Tags generated
Created
Modified
Stats Distance 177 nm / 327 km
Max Altitude 24,500 ft / 7,468 m
Waypoints 4
Social Downloads 0
Likes 0
Share VATSIM

Download

Looking for another format? Having issues loading an existing format? Contact us
Advertisement - Login to hide

Notes

Basic altitude profile: - Ascent Rate: 2500ft/min - Ascent Speed: 250kts - Cruise Altitude: 33000ft - Cruise Speed: 420kts - Descent Rate: 1500ft/min - Descent Speed: 250kts

Route

SBMK MCL UW5 PENTE SBCF

ID Type Via Altitude Latitude Longitude Leg Dist Tot Dist Heading (true) Name
O SBMK APT - 0 ft / 0 m -16.70692˚ -43.81890˚ - 0 nm - MARIO RIBEIRO
MCL NDB - 0 ft / 0 m -16.70350˚ -43.81917˚ 0 nm 0 nm 356° / 356° MONTES CLAROS NDB
PENTE FIX UW5 (AWY-HI) 24,500 ft / 7,468 m -18.96467˚ -44.00017˚ 136 nm 136 nm 184° / 184° -
O SBCF APT - 0 ft / 0 m -19.63376˚ -43.96885˚ 40 nm 176 nm 177° / 177° Tancredo Neves

Altitude Profile

Advertisement - Login to hide

Weather


0- 5 10 15 20 25 30 35+ Temperature / ° C

Clouds and Precipitation
Forecast for 2017-12-15 18:00 UTC. Updated an hour ago

Ground ~20,000 ft ~40,000 ft Winds

SBMK

Details ICAO SBMK (MOC)
Name MARIO RIBEIRO
Region Brazil
Timezone America/Sao_Paulo (UTC-2.0)
Stats Elevation 2,191 ft / 668 m (AMSL)
Location -16.706925° -43.818900°
Runways 1
Magnetic Variation 22.898° W

METAR

SBMK 151500Z 03006KT 9999 SCT020 SCT040 24/18 Q1018

Decode

TAF

Not found

Departure Runways

ID Width Length Bearing (true) Bearing (mag) Surface Threshold Offset Overrun Length
12 148 ft / 45 m 6,883 ft / 2,098 m 96.90° 119.80° Asphalt 0 ft / 0 m 0 ft / 0 m
30 148 ft / 45 m 6,883 ft / 2,098 m 276.90° 299.80° Asphalt 0 ft / 0 m 0 ft / 0 m

SBCF

Details ICAO SBCF (CNF)
Name Tancredo Neves
Region Brazil
Timezone America/Sao_Paulo (UTC-2.0)
Stats Elevation 2,715 ft / 828 m (AMSL)
Location -19.633758° -43.968854°
Runways 1
Magnetic Variation 22.804° W

METAR

SBCF 151600Z 35012KT 9999 BKN030 BKN070 21/18 Q1018

Decode

TAF

TAF SBCF 151000Z 1512/1612 09008KT 9999 BKN017 TX24/1517Z TN18/1608Z FM151400 BKN030 BECMG 1515/1516 BKN030 FEW035TCU TEMPO 1516/1521 8000 RA BECMG 1520/1521 SCT040 BECMG 1601/1603 12005KT FM160800 11008KT SCT015 RMK PEJ

Decode

Destination Runways

ID Width Length Bearing (true) Bearing (mag) Surface Threshold Offset Overrun Length
16 148 ft / 45 m 9,872 ft / 3,009 m 138.97° 161.77° Asphalt 0 ft / 0 m 203 ft / 62 m
34 148 ft / 45 m 9,872 ft / 3,009 m 318.96° 341.76° Asphalt 0 ft / 0 m 203 ft / 62 m

Approach Navaids

Runway Type Ident Frequency Range Bearing (true) Bearing (mag) Slope Elevation
16 Localiser ICF 109.70 MHz 18 nm / 33 km 138.90° 161.71° - 2,716 ft / 828 m (AMSL)
16 Glidescope ICF 109.70 MHz 10 nm / 19 km 138.96° 161.77° 3.00° 2,716 ft / 828 m (AMSL)

Popular Alternatives